Lauder Hill, Florida
Current Conditions -  °F | °C
As of 8:53 AM on Monday 24 Nov 2014 (Local Time) from KFXE Reporting Station
Scattered Clouds Scattered Clouds  
Wind Chill: 81°   Ceiling: Unl
Heat Index: 87°   Visibility: 10mi
Dew Point: 76°   Wind: 9mph
Humidity: 85%   Direction: 170°S
Pressure: 30.02"   Gusts: NA
Location:  26.2125°N, 80.2701°W
Report Text: KFXE 241353Z AUTO 17008KT 10SM SCT015 27/24 A3002 RMK AO2 SLP167 T02720244 TSNO $
Loading
Personal Weather Stations






























Interactive Weather Map New forecast layout! Learn more

10-Day Weather Forecast

Advertisements
Track Severe Weather on mobile